sensor_id;sensor_type;location;lat;lon;timestamp;temperature;humidity
85808;DHT22;76250;48.718;9.000;2024-03-22T00:02:17;10.90;62.20
85808;DHT22;76250;48.718;9.000;2024-03-22T00:04:44;10.80;62.30
85808;DHT22;76250;48.718;9.000;2024-03-22T00:07:11;10.80;62.40
85808;DHT22;76250;48.718;9.000;2024-03-22T00:09:38;10.80;62.50
85808;DHT22;76250;48.718;9.000;2024-03-22T00:12:05;10.70;62.30
85808;DHT22;76250;48.718;9.000;2024-03-22T00:14:32;10.70;62.30
85808;DHT22;76250;48.718;9.000;2024-03-22T00:16:59;10.60;62.20
85808;DHT22;76250;48.718;9.000;2024-03-22T00:19:26;10.60;62.20
85808;DHT22;76250;48.718;9.000;2024-03-22T00:21:52;10.50;62.40
85808;DHT22;76250;48.718;9.000;2024-03-22T00:24:19;10.50;62.50
85808;DHT22;76250;48.718;9.000;2024-03-22T00:26:46;10.50;62.50
85808;DHT22;76250;48.718;9.000;2024-03-22T00:29:15;10.40;62.40
85808;DHT22;76250;48.718;9.000;2024-03-22T00:31:42;10.40;62.30
85808;DHT22;76250;48.718;9.000;2024-03-22T00:34:09;10.30;62.00
85808;DHT22;76250;48.718;9.000;2024-03-22T00:36:35;10.30;62.10
85808;DHT22;76250;48.718;9.000;2024-03-22T00:39:03;10.30;62.00
85808;DHT22;76250;48.718;9.000;2024-03-22T00:41:29;10.20;61.90
85808;DHT22;76250;48.718;9.000;2024-03-22T00:43:57;10.10;62.00
85808;DHT22;76250;48.718;9.000;2024-03-22T00:46:24;10.10;62.10
85808;DHT22;76250;48.718;9.000;2024-03-22T00:48:51;10.10;62.40
85808;DHT22;76250;48.718;9.000;2024-03-22T00:51:18;10.00;62.30
85808;DHT22;76250;48.718;9.000;2024-03-22T00:53:45;10.00;62.10
85808;DHT22;76250;48.718;9.000;2024-03-22T00:56:11;10.00;62.10
85808;DHT22;76250;48.718;9.000;2024-03-22T00:58:38;9.90;62.20
85808;DHT22;76250;48.718;9.000;2024-03-22T01:01:05;9.90;62.50
85808;DHT22;76250;48.718;9.000;2024-03-22T01:03:32;9.80;62.80
85808;DHT22;76250;48.718;9.000;2024-03-22T01:05:59;9.80;63.20
85808;DHT22;76250;48.718;9.000;2024-03-22T01:08:26;9.70;63.10
85808;DHT22;76250;48.718;9.000;2024-03-22T01:10:52;9.70;62.90
85808;DHT22;76250;48.718;9.000;2024-03-22T01:13:19;9.70;62.50
85808;DHT22;76250;48.718;9.000;2024-03-22T01:15:46;9.70;62.30
85808;DHT22;76250;48.718;9.000;2024-03-22T01:18:13;9.60;62.30
85808;DHT22;76250;48.718;9.000;2024-03-22T01:20:40;9.50;62.50
85808;DHT22;76250;48.718;9.000;2024-03-22T01:23:08;9.50;62.60
85808;DHT22;76250;48.718;9.000;2024-03-22T01:25:35;9.50;62.70
85808;DHT22;76250;48.718;9.000;2024-03-22T01:28:02;9.40;62.80
85808;DHT22;76250;48.718;9.000;2024-03-22T01:30:30;9.40;63.00
85808;DHT22;76250;48.718;9.000;2024-03-22T01:32:57;9.40;63.10
85808;DHT22;76250;48.718;9.000;2024-03-22T01:35:24;9.40;62.90
85808;DHT22;76250;48.718;9.000;2024-03-22T01:37:51;9.30;62.80
85808;DHT22;76250;48.718;9.000;2024-03-22T01:40:17;9.30;62.90
85808;DHT22;76250;48.718;9.000;2024-03-22T01:42:44;9.30;63.20
85808;DHT22;76250;48.718;9.000;2024-03-22T01:45:14;9.20;63.10
85808;DHT22;76250;48.718;9.000;2024-03-22T01:47:41;9.20;63.00
85808;DHT22;76250;48.718;9.000;2024-03-22T01:50:09;9.20;62.80
85808;DHT22;76250;48.718;9.000;2024-03-22T01:52:36;9.10;62.70
85808;DHT22;76250;48.718;9.000;2024-03-22T01:55:03;9.10;62.80
85808;DHT22;76250;48.718;9.000;2024-03-22T01:57:33;9.10;62.80
85808;DHT22;76250;48.718;9.000;2024-03-22T02:00:00;9.10;63.00
85808;DHT22;76250;48.718;9.000;2024-03-22T02:02:27;9.00;63.10
85808;DHT22;76250;48.718;9.000;2024-03-22T02:04:54;9.00;63.40
85808;DHT22;76250;48.718;9.000;2024-03-22T02:07:20;9.00;63.40
85808;DHT22;76250;48.718;9.000;2024-03-22T02:09:48;8.90;63.40
85808;DHT22;76250;48.718;9.000;2024-03-22T02:12:15;8.90;63.20
85808;DHT22;76250;48.718;9.000;2024-03-22T02:14:42;8.90;63.20
85808;DHT22;76250;48.718;9.000;2024-03-22T02:17:09;8.90;63.30
85808;DHT22;76250;48.718;9.000;2024-03-22T02:22:42;8.80;63.40
85808;DHT22;76250;48.718;9.000;2024-03-22T02:25:09;8.80;63.20
85808;DHT22;76250;48.718;9.000;2024-03-22T02:27:38;8.80;63.00
85808;DHT22;76250;48.718;9.000;2024-03-22T02:30:05;8.80;63.20
85808;DHT22;76250;48.718;9.000;2024-03-22T02:32:33;8.70;63.60
85808;DHT22;76250;48.718;9.000;2024-03-22T02:35:00;8.70;63.60
85808;DHT22;76250;48.718;9.000;2024-03-22T02:37:26;8.70;63.70
85808;DHT22;76250;48.718;9.000;2024-03-22T02:39:54;8.60;63.60
85808;DHT22;76250;48.718;9.000;2024-03-22T02:42:22;8.60;63.70
85808;DHT22;76250;48.718;9.000;2024-03-22T02:44:49;8.60;63.50
85808;DHT22;76250;48.718;9.000;2024-03-22T02:47:16;8.60;63.30
85808;DHT22;76250;48.718;9.000;2024-03-22T02:49:44;8.60;63.20
85808;DHT22;76250;48.718;9.000;2024-03-22T02:52:11;8.60;63.20
85808;DHT22;76250;48.718;9.000;2024-03-22T02:54:38;8.60;63.40
85808;DHT22;76250;48.718;9.000;2024-03-22T02:57:06;8.50;63.90
85808;DHT22;76250;48.718;9.000;2024-03-22T02:59:33;8.50;64.30
85808;DHT22;76250;48.718;9.000;2024-03-22T03:02:00;8.50;64.20
85808;DHT22;76250;48.718;9.000;2024-03-22T03:04:27;8.50;64.00
85808;DHT22;76250;48.718;9.000;2024-03-22T03:06:54;8.60;63.90
85808;DHT22;76250;48.718;9.000;2024-03-22T03:09:22;8.60;64.00
85808;DHT22;76250;48.718;9.000;2024-03-22T03:11:49;8.60;64.40
85808;DHT22;76250;48.718;9.000;2024-03-22T03:14:16;8.60;64.70
85808;DHT22;76250;48.718;9.000;2024-03-22T03:16:43;8.60;65.20
85808;DHT22;76250;48.718;9.000;2024-03-22T03:19:10;8.70;65.30
85808;DHT22;76250;48.718;9.000;2024-03-22T03:21:36;8.70;65.40
85808;DHT22;76250;48.718;9.000;2024-03-22T03:24:03;8.80;65.60
85808;DHT22;76250;48.718;9.000;2024-03-22T03:26:31;8.80;65.60
85808;DHT22;76250;48.718;9.000;2024-03-22T03:28:57;8.80;65.50
85808;DHT22;76250;48.718;9.000;2024-03-22T03:31:24;8.90;65.40
85808;DHT22;76250;48.718;9.000;2024-03-22T03:33:51;8.90;65.30
85808;DHT22;76250;48.718;9.000;2024-03-22T03:36:18;9.00;65.30
85808;DHT22;76250;48.718;9.000;2024-03-22T03:38:45;9.00;65.30
85808;DHT22;76250;48.718;9.000;2024-03-22T03:41:12;9.00;65.30
85808;DHT22;76250;48.718;9.000;2024-03-22T03:43:39;9.00;65.00
85808;DHT22;76250;48.718;9.000;2024-03-22T03:46:05;9.00;64.70
85808;DHT22;76250;48.718;9.000;2024-03-22T03:48:32;9.00;64.50
85808;DHT22;76250;48.718;9.000;2024-03-22T03:50:59;9.00;64.50
85808;DHT22;76250;48.718;9.000;2024-03-22T03:53:30;9.00;64.60
85808;DHT22;76250;48.718;9.000;2024-03-22T03:55:56;9.00;64.60
85808;DHT22;76250;48.718;9.000;2024-03-22T03:58:23;9.00;64.60
85808;DHT22;76250;48.718;9.000;2024-03-22T04:00:50;9.00;64.70
85808;DHT22;76250;48.718;9.000;2024-03-22T04:03:17;9.00;64.90
85808;DHT22;76250;48.718;9.000;2024-03-22T04:05:47;9.00;65.20
85808;DHT22;76250;48.718;9.000;2024-03-22T04:08:23;9.00;65.30
85808;DHT22;76250;48.718;9.000;2024-03-22T04:10:54;9.00;65.30
85808;DHT22;76250;48.718;9.000;2024-03-22T04:13:28;9.00;65.40
85808;DHT22;76250;48.718;9.000;2024-03-22T04:15:58;9.10;65.60
85808;DHT22;76250;48.718;9.000;2024-03-22T04:18:26;9.10;65.50
85808;DHT22;76250;48.718;9.000;2024-03-22T04:20:57;9.10;65.40
85808;DHT22;76250;48.718;9.000;2024-03-22T04:23:25;9.10;65.60
85808;DHT22;76250;48.718;9.000;2024-03-22T04:25:57;9.10;65.60
85808;DHT22;76250;48.718;9.000;2024-03-22T04:28:28;9.20;65.70
85808;DHT22;76250;48.718;9.000;2024-03-22T04:33:28;9.20;66.00
85808;DHT22;76250;48.718;9.000;2024-03-22T04:35:56;9.20;65.80
85808;DHT22;76250;48.718;9.000;2024-03-22T04:38:24;9.30;65.70
85808;DHT22;76250;48.718;9.000;2024-03-22T04:40:52;9.30;65.70
85808;DHT22;76250;48.718;9.000;2024-03-22T04:43:20;9.30;65.70
85808;DHT22;76250;48.718;9.000;2024-03-22T04:45:48;9.30;65.70
85808;DHT22;76250;48.718;9.000;2024-03-22T04:48:25;9.40;65.80
85808;DHT22;76250;48.718;9.000;2024-03-22T04:50:52;9.40;65.80
85808;DHT22;76250;48.718;9.000;2024-03-22T04:53:20;9.40;65.80
85808;DHT22;76250;48.718;9.000;2024-03-22T04:55:48;9.40;65.90
85808;DHT22;76250;48.718;9.000;2024-03-22T04:58:17;9.50;65.90
85808;DHT22;76250;48.718;9.000;2024-03-22T05:00:46;9.50;66.00
85808;DHT22;76250;48.718;9.000;2024-03-22T05:03:13;9.50;65.90
85808;DHT22;76250;48.718;9.000;2024-03-22T05:05:41;9.50;65.80
85808;DHT22;76250;48.718;9.000;2024-03-22T05:08:08;9.50;65.80
85808;DHT22;76250;48.718;9.000;2024-03-22T05:10:36;9.60;66.00
85808;DHT22;76250;48.718;9.000;2024-03-22T05:13:03;9.60;65.80
85808;DHT22;76250;48.718;9.000;2024-03-22T05:15:30;9.60;65.70
85808;DHT22;76250;48.718;9.000;2024-03-22T05:17:57;9.60;65.40
85808;DHT22;76250;48.718;9.000;2024-03-22T05:20:25;9.60;65.50
85808;DHT22;76250;48.718;9.000;2024-03-22T05:22:53;9.60;65.40
85808;DHT22;76250;48.718;9.000;2024-03-22T05:25:20;9.60;65.60
85808;DHT22;76250;48.718;9.000;2024-03-22T05:27:46;9.60;65.40
85808;DHT22;76250;48.718;9.000;2024-03-22T05:30:14;9.60;65.40
85808;DHT22;76250;48.718;9.000;2024-03-22T05:32:41;9.50;65.60
85808;DHT22;76250;48.718;9.000;2024-03-22T05:35:08;9.50;65.50
85808;DHT22;76250;48.718;9.000;2024-03-22T05:37:35;9.50;65.40
85808;DHT22;76250;48.718;9.000;2024-03-22T05:40:03;9.50;65.40
85808;DHT22;76250;48.718;9.000;2024-03-22T05:42:31;9.50;65.40
85808;DHT22;76250;48.718;9.000;2024-03-22T05:44:58;9.50;65.50
85808;DHT22;76250;48.718;9.000;2024-03-22T05:47:24;9.50;65.70
85808;DHT22;76250;48.718;9.000;2024-03-22T05:49:52;9.50;65.80
85808;DHT22;76250;48.718;9.000;2024-03-22T05:52:19;9.50;65.60
85808;DHT22;76250;48.718;9.000;2024-03-22T05:54:46;9.50;65.50
85808;DHT22;76250;48.718;9.000;2024-03-22T05:57:13;9.50;65.60
85808;DHT22;76250;48.718;9.000;2024-03-22T05:59:40;9.50;65.60
85808;DHT22;76250;48.718;9.000;2024-03-22T06:02:07;9.50;65.50
85808;DHT22;76250;48.718;9.000;2024-03-22T06:04:34;9.50;65.60
85808;DHT22;76250;48.718;9.000;2024-03-22T06:07:02;9.50;65.70
85808;DHT22;76250;48.718;9.000;2024-03-22T06:09:31;9.40;65.80
85808;DHT22;76250;48.718;9.000;2024-03-22T06:12:04;9.50;65.90
85808;DHT22;76250;48.718;9.000;2024-03-22T06:14:32;9.50;65.90
85808;DHT22;76250;48.718;9.000;2024-03-22T06:16:59;9.50;65.80
85808;DHT22;76250;48.718;9.000;2024-03-22T06:19:26;9.50;66.00
85808;DHT22;76250;48.718;9.000;2024-03-22T06:21:53;9.50;65.90
85808;DHT22;76250;48.718;9.000;2024-03-22T06:24:19;9.60;66.00
85808;DHT22;76250;48.718;9.000;2024-03-22T06:26:46;9.60;65.80
85808;DHT22;76250;48.718;9.000;2024-03-22T06:29:16;9.60;66.00
85808;DHT22;76250;48.718;9.000;2024-03-22T06:31:43;9.60;66.10
85808;DHT22;76250;48.718;9.000;2024-03-22T06:34:10;9.60;66.30
85808;DHT22;76250;48.718;9.000;2024-03-22T06:36:36;9.70;66.40
85808;DHT22;76250;48.718;9.000;2024-03-22T06:39:03;9.70;66.40
85808;DHT22;76250;48.718;9.000;2024-03-22T06:41:34;9.80;66.50
85808;DHT22;76250;48.718;9.000;2024-03-22T06:44:01;9.90;66.60
85808;DHT22;76250;48.718;9.000;2024-03-22T06:46:28;9.90;66.60
85808;DHT22;76250;48.718;9.000;2024-03-22T06:48:55;10.00;66.90
85808;DHT22;76250;48.718;9.000;2024-03-22T06:51:22;10.10;66.80
85808;DHT22;76250;48.718;9.000;2024-03-22T06:53:49;10.20;66.80
85808;DHT22;76250;48.718;9.000;2024-03-22T06:56:17;10.30;66.80
85808;DHT22;76250;48.718;9.000;2024-03-22T06:58:44;10.40;66.80
85808;DHT22;76250;48.718;9.000;2024-03-22T07:01:11;10.50;66.60
85808;DHT22;76250;48.718;9.000;2024-03-22T07:03:41;10.60;66.60
85808;DHT22;76250;48.718;9.000;2024-03-22T07:06:13;10.70;66.70
85808;DHT22;76250;48.718;9.000;2024-03-22T07:08:41;10.70;66.60
85808;DHT22;76250;48.718;9.000;2024-03-22T07:11:07;10.80;66.50
85808;DHT22;76250;48.718;9.000;2024-03-22T07:13:35;10.90;66.40
85808;DHT22;76250;48.718;9.000;2024-03-22T07:16:03;11.00;66.30
85808;DHT22;76250;48.718;9.000;2024-03-22T07:18:30;11.00;66.20
85808;DHT22;76250;48.718;9.000;2024-03-22T07:20:57;11.10;66.10
85808;DHT22;76250;48.718;9.000;2024-03-22T07:23:28;11.20;66.10
85808;DHT22;76250;48.718;9.000;2024-03-22T07:25:54;11.20;66.00
85808;DHT22;76250;48.718;9.000;2024-03-22T07:28:22;11.30;65.80
85808;DHT22;76250;48.718;9.000;2024-03-22T07:30:48;11.40;65.80
85808;DHT22;76250;48.718;9.000;2024-03-22T07:33:15;11.50;65.80
85808;DHT22;76250;48.718;9.000;2024-03-22T07:35:44;11.60;65.80
85808;DHT22;76250;48.718;9.000;2024-03-22T07:38:11;11.70;65.70
85808;DHT22;76250;48.718;9.000;2024-03-22T07:40:38;11.80;65.80
85808;DHT22;76250;48.718;9.000;2024-03-22T07:43:05;12.00;65.60
85808;DHT22;76250;48.718;9.000;2024-03-22T07:45:35;12.10;65.40
85808;DHT22;76250;48.718;9.000;2024-03-22T07:48:02;12.20;65.40
85808;DHT22;76250;48.718;9.000;2024-03-22T07:50:28;12.30;65.40
85808;DHT22;76250;48.718;9.000;2024-03-22T07:52:55;12.50;65.30
85808;DHT22;76250;48.718;9.000;2024-03-22T07:55:23;12.60;65.30
85808;DHT22;76250;48.718;9.000;2024-03-22T07:57:50;12.70;65.00
85808;DHT22;76250;48.718;9.000;2024-03-22T08:00:17;12.80;65.00
85808;DHT22;76250;48.718;9.000;2024-03-22T08:02:44;12.90;64.90
85808;DHT22;76250;48.718;9.000;2024-03-22T08:05:11;13.10;64.90
85808;DHT22;76250;48.718;9.000;2024-03-22T08:07:38;13.20;64.40
85808;DHT22;76250;48.718;9.000;2024-03-22T08:10:05;13.30;64.30
85808;DHT22;76250;48.718;9.000;2024-03-22T08:12:32;13.50;64.30
85808;DHT22;76250;48.718;9.000;2024-03-22T08:14:59;13.60;64.20
85808;DHT22;76250;48.718;9.000;2024-03-22T08:17:25;13.70;64.10
85808;DHT22;76250;48.718;9.000;2024-03-22T08:19:52;13.80;64.10
85808;DHT22;76250;48.718;9.000;2024-03-22T08:22:19;14.00;63.90
85808;DHT22;76250;48.718;9.000;2024-03-22T08:24:46;14.10;63.70
85808;DHT22;76250;48.718;9.000;2024-03-22T08:27:13;14.30;63.70
85808;DHT22;76250;48.718;9.000;2024-03-22T08:29:40;14.50;63.10
85808;DHT22;76250;48.718;9.000;2024-03-22T08:32:07;14.60;62.90
85808;DHT22;76250;48.718;9.000;2024-03-22T08:34:34;14.70;62.70
85808;DHT22;76250;48.718;9.000;2024-03-22T08:37:01;14.80;62.40
85808;DHT22;76250;48.718;9.000;2024-03-22T08:39:30;14.90;62.20
85808;DHT22;76250;48.718;9.000;2024-03-22T08:41:57;14.90;62.20
85808;DHT22;76250;48.718;9.000;2024-03-22T08:44:24;15.00;62.10
85808;DHT22;76250;48.718;9.000;2024-03-22T08:46:53;15.10;62.00
85808;DHT22;76250;48.718;9.000;2024-03-22T08:49:20;15.10;61.70
85808;DHT22;76250;48.718;9.000;2024-03-22T08:51:47;15.20;61.70
85808;DHT22;76250;48.718;9.000;2024-03-22T08:54:14;15.30;61.10
85808;DHT22;76250;48.718;9.000;2024-03-22T08:56:42;15.30;61.20
85808;DHT22;76250;48.718;9.000;2024-03-22T08:59:08;15.30;61.20
85808;DHT22;76250;48.718;9.000;2024-03-22T09:01:36;15.40;61.30
85808;DHT22;76250;48.718;9.000;2024-03-22T09:04:04;15.50;61.60
85808;DHT22;76250;48.718;9.000;2024-03-22T09:06:30;15.70;61.10
85808;DHT22;76250;48.718;9.000;2024-03-22T09:08:57;15.80;61.00
85808;DHT22;76250;48.718;9.000;2024-03-22T09:11:25;16.00;60.70
85808;DHT22;76250;48.718;9.000;2024-03-22T09:13:52;16.20;60.00
85808;DHT22;76250;48.718;9.000;2024-03-22T09:16:20;16.30;60.10
85808;DHT22;76250;48.718;9.000;2024-03-22T09:18:47;16.50;59.00
85808;DHT22;76250;48.718;9.000;2024-03-22T09:21:14;16.70;58.70
85808;DHT22;76250;48.718;9.000;2024-03-22T09:23:41;16.80;58.60
85808;DHT22;76250;48.718;9.000;2024-03-22T09:26:08;16.90;58.70
85808;DHT22;76250;48.718;9.000;2024-03-22T09:28:34;17.10;58.60
85808;DHT22;76250;48.718;9.000;2024-03-22T09:31:05;17.20;58.30
85808;DHT22;76250;48.718;9.000;2024-03-22T09:33:33;17.30;57.50
85808;DHT22;76250;48.718;9.000;2024-03-22T09:36:01;17.50;57.60
85808;DHT22;76250;48.718;9.000;2024-03-22T09:38:28;17.60;57.30
85808;DHT22;76250;48.718;9.000;2024-03-22T09:40:55;17.80;56.50
85808;DHT22;76250;48.718;9.000;2024-03-22T09:43:22;17.90;55.50
85808;DHT22;76250;48.718;9.000;2024-03-22T09:45:51;17.90;56.00
85808;DHT22;76250;48.718;9.000;2024-03-22T09:48:18;18.00;56.20
85808;DHT22;76250;48.718;9.000;2024-03-22T09:50:46;18.10;56.10
85808;DHT22;76250;48.718;9.000;2024-03-22T09:53:20;18.10;55.50
85808;DHT22;76250;48.718;9.000;2024-03-22T09:55:52;18.20;55.80
85808;DHT22;76250;48.718;9.000;2024-03-22T09:58:24;18.30;54.50
85808;DHT22;76250;48.718;9.000;2024-03-22T10:00:51;18.40;54.90
85808;DHT22;76250;48.718;9.000;2024-03-22T10:03:18;18.40;54.70
85808;DHT22;76250;48.718;9.000;2024-03-22T10:05:45;18.50;52.90
85808;DHT22;76250;48.718;9.000;2024-03-22T10:08:14;18.60;53.70
85808;DHT22;76250;48.718;9.000;2024-03-22T10:10:42;18.70;53.80
85808;DHT22;76250;48.718;9.000;2024-03-22T10:13:09;18.80;53.60
85808;DHT22;76250;48.718;9.000;2024-03-22T10:15:36;18.90;53.30
85808;DHT22;76250;48.718;9.000;2024-03-22T10:18:04;18.90;53.50
85808;DHT22;76250;48.718;9.000;2024-03-22T10:20:31;19.00;52.90
85808;DHT22;76250;48.718;9.000;2024-03-22T10:22:59;19.00;52.70
85808;DHT22;76250;48.718;9.000;2024-03-22T10:25:27;19.10;50.70
85808;DHT22;76250;48.718;9.000;2024-03-22T10:27:55;19.20;51.70
85808;DHT22;76250;48.718;9.000;2024-03-22T10:30:23;19.20;50.60
85808;DHT22;76250;48.718;9.000;2024-03-22T10:32:51;19.20;50.90
85808;DHT22;76250;48.718;9.000;2024-03-22T10:35:18;19.30;51.20
85808;DHT22;76250;48.718;9.000;2024-03-22T10:37:46;19.30;51.50
85808;DHT22;76250;48.718;9.000;2024-03-22T10:40:13;19.40;51.70
85808;DHT22;76250;48.718;9.000;2024-03-22T10:42:41;19.40;50.60
85808;DHT22;76250;48.718;9.000;2024-03-22T10:45:09;19.40;51.20
85808;DHT22;76250;48.718;9.000;2024-03-22T10:47:37;19.40;49.80
85808;DHT22;76250;48.718;9.000;2024-03-22T10:50:06;19.40;49.00
85808;DHT22;76250;48.718;9.000;2024-03-22T10:52:47;19.30;49.70
85808;DHT22;76250;48.718;9.000;2024-03-22T10:55:26;19.30;50.10
85808;DHT22;76250;48.718;9.000;2024-03-22T10:57:57;19.20;49.60
85808;DHT22;76250;48.718;9.000;2024-03-22T11:00:28;19.30;50.90
85808;DHT22;76250;48.718;9.000;2024-03-22T11:03:02;19.30;49.60
85808;DHT22;76250;48.718;9.000;2024-03-22T11:05:30;19.40;50.00
85808;DHT22;76250;48.718;9.000;2024-03-22T11:08:04;19.50;49.70
85808;DHT22;76250;48.718;9.000;2024-03-22T11:10:34;19.50;49.60
85808;DHT22;76250;48.718;9.000;2024-03-22T11:13:05;19.50;49.90
85808;DHT22;76250;48.718;9.000;2024-03-22T11:15:33;19.60;49.40
85808;DHT22;76250;48.718;9.000;2024-03-22T11:18:01;19.70;49.50
85808;DHT22;76250;48.718;9.000;2024-03-22T11:20:28;19.80;50.10
85808;DHT22;76250;48.718;9.000;2024-03-22T11:22:56;19.90;48.60
85808;DHT22;76250;48.718;9.000;2024-03-22T11:25:23;19.90;48.90
85808;DHT22;76250;48.718;9.000;2024-03-22T11:27:50;20.00;49.60
85808;DHT22;76250;48.718;9.000;2024-03-22T11:30:19;20.00;49.30
85808;DHT22;76250;48.718;9.000;2024-03-22T11:32:46;20.10;49.50
85808;DHT22;76250;48.718;9.000;2024-03-22T11:35:13;20.20;49.50
85808;DHT22;76250;48.718;9.000;2024-03-22T11:37:40;20.20;49.60
85808;DHT22;76250;48.718;9.000;2024-03-22T11:40:11;20.30;49.60
85808;DHT22;76250;48.718;9.000;2024-03-22T11:42:41;20.40;48.90
85808;DHT22;76250;48.718;9.000;2024-03-22T11:45:10;20.50;49.40
85808;DHT22;76250;48.718;9.000;2024-03-22T11:47:37;20.60;49.30
85808;DHT22;76250;48.718;9.000;2024-03-22T11:50:05;20.70;47.60
85808;DHT22;76250;48.718;9.000;2024-03-22T11:52:32;20.70;47.00
85808;DHT22;76250;48.718;9.000;2024-03-22T11:54:59;20.80;47.10
85808;DHT22;76250;48.718;9.000;2024-03-22T11:57:25;20.80;47.70
85808;DHT22;76250;48.718;9.000;2024-03-22T11:59:59;20.90;47.80
85808;DHT22;76250;48.718;9.000;2024-03-22T12:02:26;20.90;47.70
85808;DHT22;76250;48.718;9.000;2024-03-22T12:04:54;21.00;47.40
85808;DHT22;76250;48.718;9.000;2024-03-22T12:07:20;21.00;46.60
85808;DHT22;76250;48.718;9.000;2024-03-22T12:09:49;21.00;48.10
85808;DHT22;76250;48.718;9.000;2024-03-22T12:12:16;21.00;47.70
85808;DHT22;76250;48.718;9.000;2024-03-22T12:14:42;21.10;47.30
85808;DHT22;76250;48.718;9.000;2024-03-22T12:17:09;21.10;47.30
85808;DHT22;76250;48.718;9.000;2024-03-22T12:19:36;21.20;45.60
85808;DHT22;76250;48.718;9.000;2024-03-22T12:22:03;21.20;46.70
85808;DHT22;76250;48.718;9.000;2024-03-22T12:24:31;21.30;46.30
85808;DHT22;76250;48.718;9.000;2024-03-22T12:27:00;21.40;47.00
85808;DHT22;76250;48.718;9.000;2024-03-22T12:29:26;21.40;46.70
85808;DHT22;76250;48.718;9.000;2024-03-22T12:31:53;21.50;45.30
85808;DHT22;76250;48.718;9.000;2024-03-22T12:34:20;21.60;46.50
85808;DHT22;76250;48.718;9.000;2024-03-22T12:36:47;21.70;46.30
85808;DHT22;76250;48.718;9.000;2024-03-22T12:39:14;21.80;46.30
85808;DHT22;76250;48.718;9.000;2024-03-22T12:41:41;21.80;46.30
85808;DHT22;76250;48.718;9.000;2024-03-22T12:44:07;21.80;46.10
85808;DHT22;76250;48.718;9.000;2024-03-22T12:46:34;22.00;46.30
85808;DHT22;76250;48.718;9.000;2024-03-22T12:49:01;22.00;46.20
85808;DHT22;76250;48.718;9.000;2024-03-22T12:51:28;22.10;45.30
85808;DHT22;76250;48.718;9.000;2024-03-22T12:53:54;22.10;46.00
85808;DHT22;76250;48.718;9.000;2024-03-22T12:56:21;22.20;45.20
85808;DHT22;76250;48.718;9.000;2024-03-22T12:58:48;22.20;45.10
85808;DHT22;76250;48.718;9.000;2024-03-22T13:01:16;22.20;45.10
85808;DHT22;76250;48.718;9.000;2024-03-22T13:03:43;22.20;45.10
85808;DHT22;76250;48.718;9.000;2024-03-22T13:06:09;22.30;44.90
85808;DHT22;76250;48.718;9.000;2024-03-22T13:08:36;22.30;44.30
85808;DHT22;76250;48.718;9.000;2024-03-22T13:11:05;22.30;43.90
85808;DHT22;76250;48.718;9.000;2024-03-22T13:13:35;22.30;44.30
85808;DHT22;76250;48.718;9.000;2024-03-22T13:16:03;22.30;44.30
85808;DHT22;76250;48.718;9.000;2024-03-22T13:18:30;22.30;44.70
85808;DHT22;76250;48.718;9.000;2024-03-22T13:20:57;22.30;44.40
85808;DHT22;76250;48.718;9.000;2024-03-22T13:23:24;22.40;44.00
85808;DHT22;76250;48.718;9.000;2024-03-22T13:25:51;22.40;43.60
85808;DHT22;76250;48.718;9.000;2024-03-22T13:28:18;22.30;43.80
85808;DHT22;76250;48.718;9.000;2024-03-22T13:30:48;22.30;43.20
85808;DHT22;76250;48.718;9.000;2024-03-22T13:33:15;22.30;43.30
85808;DHT22;76250;48.718;9.000;2024-03-22T13:35:45;22.40;43.70
85808;DHT22;76250;48.718;9.000;2024-03-22T13:38:12;22.40;44.10
85808;DHT22;76250;48.718;9.000;2024-03-22T13:40:40;22.40;43.40
85808;DHT22;76250;48.718;9.000;2024-03-22T13:43:07;22.50;43.60
85808;DHT22;76250;48.718;9.000;2024-03-22T13:45:40;22.60;43.40
85808;DHT22;76250;48.718;9.000;2024-03-22T13:48:11;22.60;42.70
85808;DHT22;76250;48.718;9.000;2024-03-22T13:50:38;22.70;42.50
85808;DHT22;76250;48.718;9.000;2024-03-22T13:53:05;22.70;42.50
85808;DHT22;76250;48.718;9.000;2024-03-22T13:55:33;22.90;42.70
85808;DHT22;76250;48.718;9.000;2024-03-22T13:58:00;22.90;43.30
85808;DHT22;76250;48.718;9.000;2024-03-22T14:00:28;23.00;42.30
85808;DHT22;76250;48.718;9.000;2024-03-22T14:02:54;23.00;42.50
85808;DHT22;76250;48.718;9.000;2024-03-22T14:05:22;23.10;42.20
85808;DHT22;76250;48.718;9.000;2024-03-22T14:07:51;23.10;40.90
85808;DHT22;76250;48.718;9.000;2024-03-22T14:10:17;23.10;41.10
85808;DHT22;76250;48.718;9.000;2024-03-22T14:12:46;23.20;41.60
85808;DHT22;76250;48.718;9.000;2024-03-22T14:15:13;23.30;41.10
85808;DHT22;76250;48.718;9.000;2024-03-22T14:17:40;23.40;41.10
85808;DHT22;76250;48.718;9.000;2024-03-22T14:20:07;23.50;41.20
85808;DHT22;76250;48.718;9.000;2024-03-22T14:22:39;23.50;41.20
85808;DHT22;76250;48.718;9.000;2024-03-22T14:25:07;23.60;40.40
85808;DHT22;76250;48.718;9.000;2024-03-22T14:27:35;23.60;41.20
85808;DHT22;76250;48.718;9.000;2024-03-22T14:30:04;23.70;39.80
85808;DHT22;76250;48.718;9.000;2024-03-22T14:32:34;23.70;39.70
85808;DHT22;76250;48.718;9.000;2024-03-22T14:35:01;23.60;40.50
85808;DHT22;76250;48.718;9.000;2024-03-22T14:37:28;23.50;40.00
85808;DHT22;76250;48.718;9.000;2024-03-22T14:39:54;23.50;39.20
85808;DHT22;76250;48.718;9.000;2024-03-22T14:42:21;23.40;39.20
85808;DHT22;76250;48.718;9.000;2024-03-22T14:44:48;23.20;39.30
85808;DHT22;76250;48.718;9.000;2024-03-22T14:47:15;23.10;39.00
85808;DHT22;76250;48.718;9.000;2024-03-22T14:49:42;23.00;37.00
85808;DHT22;76250;48.718;9.000;2024-03-22T14:52:09;22.80;36.80
85808;DHT22;76250;48.718;9.000;2024-03-22T14:54:35;22.70;37.30
85808;DHT22;76250;48.718;9.000;2024-03-22T14:57:02;22.60;36.90
85808;DHT22;76250;48.718;9.000;2024-03-22T14:59:29;22.40;37.40
85808;DHT22;76250;48.718;9.000;2024-03-22T15:01:56;22.30;37.40
85808;DHT22;76250;48.718;9.000;2024-03-22T15:04:23;22.20;38.10
85808;DHT22;76250;48.718;9.000;2024-03-22T15:06:50;22.10;38.60
85808;DHT22;76250;48.718;9.000;2024-03-22T15:09:18;22.00;38.50
85808;DHT22;76250;48.718;9.000;2024-03-22T15:11:45;22.00;38.30
85808;DHT22;76250;48.718;9.000;2024-03-22T15:14:13;21.90;38.70
85808;DHT22;76250;48.718;9.000;2024-03-22T15:16:40;21.80;38.40
85808;DHT22;76250;48.718;9.000;2024-03-22T15:19:09;21.80;37.90
85808;DHT22;76250;48.718;9.000;2024-03-22T15:21:37;21.70;38.90
85808;DHT22;76250;48.718;9.000;2024-03-22T15:24:04;21.60;38.80
85808;DHT22;76250;48.718;9.000;2024-03-22T15:26:32;21.60;39.00
85808;DHT22;76250;48.718;9.000;2024-03-22T15:28:59;21.60;38.50
85808;DHT22;76250;48.718;9.000;2024-03-22T15:31:26;21.50;38.60
85808;DHT22;76250;48.718;9.000;2024-03-22T15:33:53;21.40;38.60
85808;DHT22;76250;48.718;9.000;2024-03-22T15:36:20;21.30;38.90
85808;DHT22;76250;48.718;9.000;2024-03-22T15:38:46;21.20;39.10
85808;DHT22;76250;48.718;9.000;2024-03-22T15:41:13;21.20;38.90
85808;DHT22;76250;48.718;9.000;2024-03-22T15:43:44;21.10;38.70
85808;DHT22;76250;48.718;9.000;2024-03-22T15:46:11;21.00;39.30